Messwerte Queretaro

Temperatur

Temperatur
°C
1623920400 4.00 4.00 12
1623924000 5.00 5.00 12
1623927600 6.00 6.00 13
1623931200 7.00 7.00 12
1623934800 8.00 8.00 14
1623938400 9.00 9.00 15
1623942000 10.00 10.00 16
1623945600 11.00 11.00
1623949200 12.00 12.00 17
1623952800 13.00 13.00 19
1623956400 14.00 14.00 20
1623960000 15.00 15.00
1623963600 16.00 16.00
1623967200 17.00 17.00 22
1623970800 18.00 18.00 22
1623974400 19.00 19.00 20
1623978000 20.00 20.00 19
1623981600 21.00 21.00 17
1623985200 22.00 22.00 17
1623988800 23.00 23.00 16
1623992400 0.00 0.00 17
1623996000 1.00 1.00 15
1623999600 2.00 2.00 14
1624003200 3.00 3.00 15

Aktuellste Messwerte

Wettercharakter
Wetter: bedeckt
Temperatur
15 °C
Feuchtigkeit
94 %
Wind
15 km/hWindrichtung: Ost
Luftdruck
1024 hPa
Messzeit: 18. Juni 2021, 3.00Datenquelle: METAR

Weitere Messstationen in der Nähe

Messstation Temperatur Entfernung
Guanajuato - 103 km
Morelia 17 °C 127 km
Toluca 12 °C 163 km
Mexiko-Stadt 15 °C 184 km
San Luis Potosí 14 °C 188 km
Uruapan - 215 km
Cuernavaca - 225 km

Wind

Windrichtung Böen Mittelwind
° km/h km/h
1623920400 4.00 3.00 - 4.00 130° 10
1623924000 5.00 4.00 - 5.00 100° 15
1623927600 6.00 5.00 - 6.00 70° 10
1623931200 7.00 6.00 - 7.00 90° 5
1623934800 8.00 7.00 - 8.00 80° 10
1623938400 9.00 8.00 - 9.00 90° 10
1623942000 10.00 9.00 - 10.00 90° 15
1623945600 11.00 10.00 - 11.00
1623949200 12.00 11.00 - 12.00 90° 10
1623952800 13.00 12.00 - 13.00 50° 20
1623956400 14.00 13.00 - 14.00 60° 20
1623960000 15.00 14.00 - 15.00
1623963600 16.00 15.00 - 16.00
1623967200 17.00 16.00 - 17.00 50° 20
1623970800 18.00 17.00 - 18.00 70° 30
1623974400 19.00 18.00 - 19.00 60° 25
1623978000 20.00 19.00 - 20.00 80° 30
1623981600 21.00 20.00 - 21.00 80° 30
1623985200 22.00 21.00 - 22.00 110° 20
1623988800 23.00 22.00 - 23.00 70° 20
1623992400 0.00 23.00 - 0.00 100° 15
1623996000 1.00 0.00 - 1.00 130° 10
1623999600 2.00 1.00 - 2.00 100° 15
1624003200 3.00 2.00 - 3.00 100° 15

Ihre Wetterstation

Fehlt Ihre Wetterstation auf unserem Portal?

Schreiben Sie an network@meteonews.ch

Klima

Wann ist es am wärmsten? Wann regnet es am wenigsten? Unsere Klimadaten geben Auskunft.